sensor_id;sensor_type;location;lat;lon;timestamp;pressure;altitude;pressure_sealevel;temperature;humidity
55066;BME280;40964;42.114;24.220;2023-05-21T00:00:09;97611.88;;;15.24;90.80
55066;BME280;40964;42.114;24.220;2023-05-21T00:02:36;97600.47;;;15.24;90.75
55066;BME280;40964;42.114;24.220;2023-05-21T00:05:04;97610.31;;;15.28;91.27
55066;BME280;40964;42.114;24.220;2023-05-21T00:07:30;97609.28;;;15.29;92.40
55066;BME280;40964;42.114;24.220;2023-05-21T00:09:58;97608.25;;;15.36;92.46
55066;BME280;40964;42.114;24.220;2023-05-21T00:12:24;97598.94;;;15.28;92.45
55066;BME280;40964;42.114;24.220;2023-05-21T00:14:49;97600.34;;;15.41;93.51
55066;BME280;40964;42.114;24.220;2023-05-21T00:17:15;97601.66;;;15.38;93.14
55066;BME280;40964;42.114;24.220;2023-05-21T00:19:40;97599.56;;;15.40;93.24
55066;BME280;40964;42.114;24.220;2023-05-21T00:22:06;97590.47;;;15.31;94.63
55066;BME280;40964;42.114;24.220;2023-05-21T00:24:31;97593.72;;;15.38;94.58
55066;BME280;40964;42.114;24.220;2023-05-21T00:26:57;97594.97;;;15.30;94.61
55066;BME280;40964;42.114;24.220;2023-05-21T00:29:23;97563.00;;;15.10;95.33
55066;BME280;40964;42.114;24.220;2023-05-21T00:31:50;97594.97;;;15.30;96.33
55066;BME280;40964;42.114;24.220;2023-05-21T00:34:16;97595.22;;;15.29;96.92
55066;BME280;40964;42.114;24.220;2023-05-21T00:36:44;97595.78;;;15.36;96.46
55066;BME280;40964;42.114;24.220;2023-05-21T00:39:10;97586.00;;;15.37;95.96
55066;BME280;40964;42.114;24.220;2023-05-21T00:41:36;97588.91;;;15.35;94.46
55066;BME280;40964;42.114;24.220;2023-05-21T00:44:07;97584.41;;;15.36;93.56
55066;BME280;40964;42.114;24.220;2023-05-21T00:46:33;97580.66;;;15.31;92.99
55066;BME280;40964;42.114;24.220;2023-05-21T00:48:59;97570.06;;;15.31;92.52
55066;BME280;40964;42.114;24.220;2023-05-21T00:51:25;97574.84;;;15.34;91.57
55066;BME280;40964;42.114;24.220;2023-05-21T00:53:55;97572.75;;;15.37;90.83
55066;BME280;40964;42.114;24.220;2023-05-21T00:56:22;97567.97;;;15.33;89.58
55066;BME280;40964;42.114;24.220;2023-05-21T00:58:49;97562.91;;;15.32;89.13
55066;BME280;40964;42.114;24.220;2023-05-21T01:01:16;97558.97;;;15.34;88.90
55066;BME280;40964;42.114;24.220;2023-05-21T01:03:42;97552.66;;;15.41;88.58
55066;BME280;40964;42.114;24.220;2023-05-21T01:06:09;97556.72;;;15.53;88.30
55066;BME280;40964;42.114;24.220;2023-05-21T01:08:35;97548.75;;;15.53;86.94
55066;BME280;40964;42.114;24.220;2023-05-21T01:11:07;97549.56;;;15.54;86.10
55066;BME280;40964;42.114;24.220;2023-05-21T01:13:36;97541.06;;;15.52;85.05
55066;BME280;40964;42.114;24.220;2023-05-21T01:16:03;97552.03;;;15.60;85.02
55066;BME280;40964;42.114;24.220;2023-05-21T01:18:31;97558.47;;;15.70;85.23
55066;BME280;40964;42.114;24.220;2023-05-21T01:21:00;97552.63;;;15.68;84.42
55066;BME280;40964;42.114;24.220;2023-05-21T01:23:26;97552.38;;;15.69;84.46
55066;BME280;40964;42.114;24.220;2023-05-21T01:25:52;97552.88;;;15.66;84.57
55066;BME280;40964;42.114;24.220;2023-05-21T01:28:17;97553.38;;;15.63;85.06
55066;BME280;40964;42.114;24.220;2023-05-21T01:30:43;97553.38;;;15.63;85.69
55066;BME280;40964;42.114;24.220;2023-05-21T01:35:54;97544.63;;;15.63;85.59
55066;BME280;40964;42.114;24.220;2023-05-21T01:38:32;97546.72;;;15.60;85.89
55066;BME280;40964;42.114;24.220;2023-05-21T01:41:02;97550.22;;;15.66;84.86
55066;BME280;40964;42.114;24.220;2023-05-21T01:43:33;97537.16;;;15.59;84.11
55066;BME280;40964;42.114;24.220;2023-05-21T01:45:59;97538.53;;;15.62;83.75
55066;BME280;40964;42.114;24.220;2023-05-21T01:48:27;97535.03;;;15.56;84.62
55066;BME280;40964;42.114;24.220;2023-05-21T01:50:54;97555.25;;;15.36;96.31
55066;BME280;40964;42.114;24.220;2023-05-21T01:53:21;97541.75;;;15.05;100.00
55066;BME280;40964;42.114;24.220;2023-05-21T01:55:47;97541.84;;;15.15;99.86
55066;BME280;40964;42.114;24.220;2023-05-21T01:58:13;97552.97;;;15.17;99.59
55066;BME280;40964;42.114;24.220;2023-05-21T02:00:40;97565.41;;;15.12;99.49
55066;BME280;40964;42.114;24.220;2023-05-21T02:03:06;97570.53;;;14.96;100.00
55066;BME280;40964;42.114;24.220;2023-05-21T02:05:33;97543.69;;;14.88;99.98
55066;BME280;40964;42.114;24.220;2023-05-21T02:07:58;97551.19;;;14.96;98.88
55066;BME280;40964;42.114;24.220;2023-05-21T02:10:24;97541.47;;;15.01;97.25
55066;BME280;40964;42.114;24.220;2023-05-21T02:12:50;97515.56;;;14.82;96.63
55066;BME280;40964;42.114;24.220;2023-05-21T02:15:15;97553.78;;;14.91;96.78
55066;BME280;40964;42.114;24.220;2023-05-21T02:17:45;97543.84;;;14.76;97.39
55066;BME280;40964;42.114;24.220;2023-05-21T02:20:11;97532.50;;;14.81;97.28
55066;BME280;40964;42.114;24.220;2023-05-21T02:22:44;97541.25;;;14.81;97.05
55066;BME280;40964;42.114;24.220;2023-05-21T02:25:11;97536.00;;;14.86;95.62
55066;BME280;40964;42.114;24.220;2023-05-21T02:27:37;97536.31;;;14.90;93.74
55066;BME280;40964;42.114;24.220;2023-05-21T02:30:05;97532.41;;;14.97;92.40
55066;BME280;40964;42.114;24.220;2023-05-21T02:32:37;97534.81;;;14.99;91.48
55066;BME280;40964;42.114;24.220;2023-05-21T02:35:07;97527.09;;;14.97;91.84
55066;BME280;40964;42.114;24.220;2023-05-21T02:37:34;97528.97;;;14.97;91.01
55066;BME280;40964;42.114;24.220;2023-05-21T02:40:01;97531.16;;;15.05;89.67
55066;BME280;40964;42.114;24.220;2023-05-21T02:42:28;97516.34;;;15.09;87.46
55066;BME280;40964;42.114;24.220;2023-05-21T02:44:54;97531.78;;;15.17;86.49
55066;BME280;40964;42.114;24.220;2023-05-21T02:47:19;97530.25;;;15.21;86.90
55066;BME280;40964;42.114;24.220;2023-05-21T02:49:48;97532.38;;;15.24;86.73
55066;BME280;40964;42.114;24.220;2023-05-21T02:52:14;97532.19;;;15.31;85.36
55066;BME280;40964;42.114;24.220;2023-05-21T02:54:40;97532.19;;;15.31;85.88
55066;BME280;40964;42.114;24.220;2023-05-21T02:57:06;97527.13;;;15.29;84.74
55066;BME280;40964;42.114;24.220;2023-05-21T02:59:31;97534.84;;;15.36;83.01
55066;BME280;40964;42.114;24.220;2023-05-21T03:01:57;97533.06;;;15.42;82.73
55066;BME280;40964;42.114;24.220;2023-05-21T03:04:22;97528.25;;;15.39;82.57
55066;BME280;40964;42.114;24.220;2023-05-21T03:06:49;97525.56;;;15.33;82.74
55066;BME280;40964;42.114;24.220;2023-05-21T03:09:22;97533.78;;;15.32;84.44
55066;BME280;40964;42.114;24.220;2023-05-21T03:11:48;97549.78;;;15.15;87.96
55066;BME280;40964;42.114;24.220;2023-05-21T03:14:14;97548.28;;;14.97;94.96
55066;BME280;40964;42.114;24.220;2023-05-21T03:16:43;97532.91;;;14.94;96.29
55066;BME280;40964;42.114;24.220;2023-05-21T03:19:11;97527.88;;;14.93;97.76
55066;BME280;40964;42.114;24.220;2023-05-21T03:21:37;97531.81;;;14.90;97.11
55066;BME280;40964;42.114;24.220;2023-05-21T03:24:06;97539.47;;;14.87;95.46
55066;BME280;40964;42.114;24.220;2023-05-21T03:26:31;97530.41;;;14.83;95.00
55066;BME280;40964;42.114;24.220;2023-05-21T03:28:57;97538.34;;;14.83;94.62
55066;BME280;40964;42.114;24.220;2023-05-21T03:31:23;97546.28;;;14.83;94.29
55066;BME280;40964;42.114;24.220;2023-05-21T03:33:50;97548.59;;;14.74;98.63
55066;BME280;40964;42.114;24.220;2023-05-21T03:36:17;97545.63;;;14.70;99.38
55066;BME280;40964;42.114;24.220;2023-05-21T03:38:42;97537.69;;;14.70;98.69
55066;BME280;40964;42.114;24.220;2023-05-21T03:41:08;97535.06;;;14.70;98.38
55066;BME280;40964;42.114;24.220;2023-05-21T03:43:34;97543.09;;;14.81;96.78
55066;BME280;40964;42.114;24.220;2023-05-21T03:46:00;97539.09;;;14.78;96.21
55066;BME280;40964;42.114;24.220;2023-05-21T03:48:25;97531.72;;;14.80;94.84
55066;BME280;40964;42.114;24.220;2023-05-21T03:50:51;97532.81;;;14.84;92.10
55066;BME280;40964;42.114;24.220;2023-05-21T03:53:16;97540.81;;;14.89;92.68
55066;BME280;40964;42.114;24.220;2023-05-21T03:55:42;97552.00;;;14.96;91.06
55066;BME280;40964;42.114;24.220;2023-05-21T03:58:08;97551.91;;;14.86;92.79
55066;BME280;40964;42.114;24.220;2023-05-21T04:00:35;97540.06;;;14.94;92.65
55066;BME280;40964;42.114;24.220;2023-05-21T04:03:05;97548.91;;;15.04;92.74
55066;BME280;40964;42.114;24.220;2023-05-21T04:05:31;97547.38;;;15.14;87.55
55066;BME280;40964;42.114;24.220;2023-05-21T04:07:57;97537.41;;;15.26;86.74
55066;BME280;40964;42.114;24.220;2023-05-21T04:10:23;97542.00;;;15.36;87.26
55066;BME280;40964;42.114;24.220;2023-05-21T04:12:48;97539.19;;;15.47;89.09
55066;BME280;40964;42.114;24.220;2023-05-21T04:15:19;97534.22;;;15.56;88.90
55066;BME280;40964;42.114;24.220;2023-05-21T04:17:44;97543.34;;;15.65;88.81
55066;BME280;40964;42.114;24.220;2023-05-21T04:20:13;97550.28;;;15.76;87.97
55066;BME280;40964;42.114;24.220;2023-05-21T04:22:41;97541.88;;;15.84;88.07
55066;BME280;40964;42.114;24.220;2023-05-21T04:25:07;97541.88;;;15.89;88.13
55066;BME280;40964;42.114;24.220;2023-05-21T04:27:33;97529.72;;;15.99;89.26
55066;BME280;40964;42.114;24.220;2023-05-21T04:29:59;97537.88;;;16.39;87.25
55066;BME280;40964;42.114;24.220;2023-05-21T04:32:24;97541.25;;;16.92;86.66
55066;BME280;40964;42.114;24.220;2023-05-21T04:34:50;97541.25;;;16.97;86.63
55066;BME280;40964;42.114;24.220;2023-05-21T04:37:15;97534.34;;;16.96;84.94
55066;BME280;40964;42.114;24.220;2023-05-21T04:39:44;97539.41;;;17.03;83.64
55066;BME280;40964;42.114;24.220;2023-05-21T04:42:09;97538.63;;;17.23;84.77
55066;BME280;40964;42.114;24.220;2023-05-21T04:44:36;97530.66;;;17.28;84.05
55066;BME280;40964;42.114;24.220;2023-05-21T04:47:02;97533.56;;;17.31;83.10
55066;BME280;40964;42.114;24.220;2023-05-21T04:49:28;97528.28;;;17.37;81.40
55066;BME280;40964;42.114;24.220;2023-05-21T04:51:54;97531.44;;;17.34;80.37
55066;BME280;40964;42.114;24.220;2023-05-21T04:54:19;97541.81;;;17.45;80.67
55066;BME280;40964;42.114;24.220;2023-05-21T04:56:45;97536.75;;;17.84;77.94
55066;BME280;40964;42.114;24.220;2023-05-21T04:59:12;97529.53;;;18.00;76.93
55066;BME280;40964;42.114;24.220;2023-05-21T05:01:37;97534.28;;;18.19;75.95
55066;BME280;40964;42.114;24.220;2023-05-21T05:04:04;97528.66;;;18.20;76.07
55066;BME280;40964;42.114;24.220;2023-05-21T05:06:30;97540.31;;;18.44;76.10
55066;BME280;40964;42.114;24.220;2023-05-21T05:08:55;97530.97;;;18.42;75.52
55066;BME280;40964;42.114;24.220;2023-05-21T05:11:21;97535.50;;;18.47;75.46
55066;BME280;40964;42.114;24.220;2023-05-21T05:13:47;97541.06;;;18.50;75.06
55066;BME280;40964;42.114;24.220;2023-05-21T05:16:12;97541.09;;;18.45;77.74
55066;BME280;40964;42.114;24.220;2023-05-21T05:18:41;97545.41;;;18.31;81.38
55066;BME280;40964;42.114;24.220;2023-05-21T05:21:06;97544.13;;;18.13;85.27
55066;BME280;40964;42.114;24.220;2023-05-21T05:23:32;97529.97;;;18.28;85.71
55066;BME280;40964;42.114;24.220;2023-05-21T05:25:57;97546.94;;;18.52;86.30
55066;BME280;40964;42.114;24.220;2023-05-21T05:28:23;97542.72;;;18.31;86.64
55066;BME280;40964;42.114;24.220;2023-05-21T05:30:48;97543.75;;;18.40;84.00
55066;BME280;40964;42.114;24.220;2023-05-21T05:33:14;97539.34;;;18.80;84.75
55066;BME280;40964;42.114;24.220;2023-05-21T05:35:39;97542.63;;;18.61;84.85
55066;BME280;40964;42.114;24.220;2023-05-21T05:38:04;97526.63;;;18.66;87.72
55066;BME280;40964;42.114;24.220;2023-05-21T05:40:30;97525.53;;;18.73;86.19
55066;BME280;40964;42.114;24.220;2023-05-21T05:42:55;97531.59;;;18.88;87.42
55066;BME280;40964;42.114;24.220;2023-05-21T05:45:21;97527.06;;;18.84;85.37
55066;BME280;40964;42.114;24.220;2023-05-21T05:47:46;97532.69;;;18.77;85.71
55066;BME280;40964;42.114;24.220;2023-05-21T05:50:12;97532.16;;;18.80;86.38
55066;BME280;40964;42.114;24.220;2023-05-21T05:52:37;97544.19;;;18.73;84.03
55066;BME280;40964;42.114;24.220;2023-05-21T05:55:03;97555.06;;;18.76;85.02
55066;BME280;40964;42.114;24.220;2023-05-21T05:57:28;97551.94;;;18.64;85.31
55066;BME280;40964;42.114;24.220;2023-05-21T05:59:54;97543.66;;;18.70;83.56
55066;BME280;40964;42.114;24.220;2023-05-21T06:02:20;97550.47;;;18.87;86.02
55066;BME280;40964;42.114;24.220;2023-05-21T06:04:45;97569.47;;;18.75;81.60
55066;BME280;40964;42.114;24.220;2023-05-21T06:07:11;97572.50;;;18.48;85.84
55066;BME280;40964;42.114;24.220;2023-05-21T06:09:36;97565.03;;;18.50;85.82
55066;BME280;40964;42.114;24.220;2023-05-21T06:12:05;97565.25;;;18.64;83.84
55066;BME280;40964;42.114;24.220;2023-05-21T06:14:31;97565.22;;;18.69;80.21
55066;BME280;40964;42.114;24.220;2023-05-21T06:16:56;97590.84;;;18.50;80.70
55066;BME280;40964;42.114;24.220;2023-05-21T06:19:21;97583.19;;;18.38;84.32
55066;BME280;40964;42.114;24.220;2023-05-21T06:21:47;97582.31;;;18.58;85.42
55066;BME280;40964;42.114;24.220;2023-05-21T06:24:12;97584.38;;;18.76;83.87
55066;BME280;40964;42.114;24.220;2023-05-21T06:26:38;97584.72;;;18.69;83.95
55066;BME280;40964;42.114;24.220;2023-05-21T06:29:03;97593.72;;;18.74;81.50
55066;BME280;40964;42.114;24.220;2023-05-21T06:31:29;97608.13;;;18.67;82.96
55066;BME280;40964;42.114;24.220;2023-05-21T06:33:57;97596.50;;;18.43;85.31
55066;BME280;40964;42.114;24.220;2023-05-21T06:36:23;97607.66;;;18.45;87.18
55066;BME280;40964;42.114;24.220;2023-05-21T06:38:56;97617.53;;;18.44;88.21
55066;BME280;40964;42.114;24.220;2023-05-21T06:41:22;97627.41;;;18.34;89.43
55066;BME280;40964;42.114;24.220;2023-05-21T06:43:47;97624.75;;;18.34;86.02
55066;BME280;40964;42.114;24.220;2023-05-21T06:46:13;97623.13;;;18.33;83.18
55066;BME280;40964;42.114;24.220;2023-05-21T06:48:38;97626.34;;;18.35;84.54
55066;BME280;40964;42.114;24.220;2023-05-21T06:51:04;97615.34;;;18.57;82.63
55066;BME280;40964;42.114;24.220;2023-05-21T06:53:30;97614.81;;;18.55;79.81
55066;BME280;40964;42.114;24.220;2023-05-21T06:55:55;97608.94;;;18.68;82.89
55066;BME280;40964;42.114;24.220;2023-05-21T06:58:21;97603.03;;;18.76;82.70
55066;BME280;40964;42.114;24.220;2023-05-21T07:00:47;97602.22;;;18.81;79.48
55066;BME280;40964;42.114;24.220;2023-05-21T07:03:13;97609.63;;;18.94;80.20
55066;BME280;40964;42.114;24.220;2023-05-21T07:05:38;97606.34;;;19.07;77.36
55066;BME280;40964;42.114;24.220;2023-05-21T07:08:03;97601.78;;;19.13;75.31
55066;BME280;40964;42.114;24.220;2023-05-21T07:10:29;97595.84;;;19.21;75.30
55066;BME280;40964;42.114;24.220;2023-05-21T07:12:54;97598.66;;;19.40;74.83
55066;BME280;40964;42.114;24.220;2023-05-21T07:15:20;97589.28;;;19.47;70.65
55066;BME280;40964;42.114;24.220;2023-05-21T07:17:45;97585.78;;;19.52;70.32
55066;BME280;40964;42.114;24.220;2023-05-21T07:20:11;97585.41;;;19.69;69.53
55066;BME280;40964;42.114;24.220;2023-05-21T07:22:37;97576.22;;;19.80;67.53
55066;BME280;40964;42.114;24.220;2023-05-21T07:25:04;97582.16;;;20.01;66.08
55066;BME280;40964;42.114;24.220;2023-05-21T07:27:29;97582.53;;;20.18;66.32
55066;BME280;40964;42.114;24.220;2023-05-21T07:29:55;97582.28;;;20.44;64.90
55066;BME280;40964;42.114;24.220;2023-05-21T07:32:20;97578.69;;;20.96;59.65
55066;BME280;40964;42.114;24.220;2023-05-21T07:34:46;97578.75;;;21.29;57.37
55066;BME280;40964;42.114;24.220;2023-05-21T07:37:11;97584.78;;;21.39;56.30
55066;BME280;40964;42.114;24.220;2023-05-21T07:39:38;97582.94;;;21.35;53.03
55066;BME280;40964;42.114;24.220;2023-05-21T07:42:03;97577.72;;;21.43;51.19
55066;BME280;40964;42.114;24.220;2023-05-21T07:44:29;97581.41;;;21.66;51.51
55066;BME280;40964;42.114;24.220;2023-05-21T07:46:56;97581.56;;;22.02;48.45
55066;BME280;40964;42.114;24.220;2023-05-21T07:49:21;97581.41;;;22.13;48.21
55066;BME280;40964;42.114;24.220;2023-05-21T07:51:47;97580.13;;;22.37;45.47
55066;BME280;40964;42.114;24.220;2023-05-21T07:54:12;97589.75;;;22.38;47.83
55066;BME280;40964;42.114;24.220;2023-05-21T07:56:38;97587.06;;;22.25;45.06
55066;BME280;40964;42.114;24.220;2023-05-21T07:59:03;97599.25;;;22.17;45.09
55066;BME280;40964;42.114;24.220;2023-05-21T08:01:29;97602.47;;;22.33;47.14
55066;BME280;40964;42.114;24.220;2023-05-21T08:03:55;97602.66;;;22.50;43.64
55066;BME280;40964;42.114;24.220;2023-05-21T08:06:20;97593.81;;;22.63;44.68
55066;BME280;40964;42.114;24.220;2023-05-21T08:08:48;97605.84;;;22.52;44.50
55066;BME280;40964;42.114;24.220;2023-05-21T08:11:14;97596.28;;;22.46;45.38
55066;BME280;40964;42.114;24.220;2023-05-21T08:13:39;97595.28;;;22.70;46.52
55066;BME280;40964;42.114;24.220;2023-05-21T08:16:05;97590.31;;;22.77;42.22
55066;BME280;40964;42.114;24.220;2023-05-21T08:18:30;97592.59;;;22.97;44.55
55066;BME280;40964;42.114;24.220;2023-05-21T08:20:56;97582.34;;;23.13;42.15
55066;BME280;40964;42.114;24.220;2023-05-21T08:23:21;97585.25;;;23.25;38.71
55066;BME280;40964;42.114;24.220;2023-05-21T08:25:47;97575.31;;;23.26;38.59
55066;BME280;40964;42.114;24.220;2023-05-21T08:28:12;97584.56;;;23.56;38.98
55066;BME280;40964;42.114;24.220;2023-05-21T08:30:38;97587.03;;;23.66;41.15
55066;BME280;40964;42.114;24.220;2023-05-21T08:33:03;97588.63;;;23.98;42.97
55066;BME280;40964;42.114;24.220;2023-05-21T08:35:29;97594.81;;;24.07;39.13
55066;BME280;40964;42.114;24.220;2023-05-21T08:37:54;97599.56;;;24.01;39.82
55066;BME280;40964;42.114;24.220;2023-05-21T08:40:20;97582.81;;;24.04;40.82
55066;BME280;40964;42.114;24.220;2023-05-21T08:42:46;97595.41;;;24.26;39.24
55066;BME280;40964;42.114;24.220;2023-05-21T08:45:13;97597.75;;;24.19;38.27
55066;BME280;40964;42.114;24.220;2023-05-21T08:47:41;97600.44;;;24.19;39.48
55066;BME280;40964;42.114;24.220;2023-05-21T08:50:12;97597.47;;;24.29;39.20
55066;BME280;40964;42.114;24.220;2023-05-21T08:52:38;97592.06;;;24.21;35.97
55066;BME280;40964;42.114;24.220;2023-05-21T08:55:05;97581.91;;;24.09;36.75
55066;BME280;40964;42.114;24.220;2023-05-21T08:57:31;97583.03;;;24.17;34.82
55066;BME280;40964;42.114;24.220;2023-05-21T08:59:58;97590.63;;;24.46;37.57
55066;BME280;40964;42.114;24.220;2023-05-21T09:02:23;97582.84;;;24.44;40.59
55066;BME280;40964;42.114;24.220;2023-05-21T09:04:53;97593.63;;;24.53;36.88
55066;BME280;40964;42.114;24.220;2023-05-21T09:07:25;97592.13;;;24.86;38.77
55066;BME280;40964;42.114;24.220;2023-05-21T09:10:01;97578.53;;;24.91;39.32
55066;BME280;40964;42.114;24.220;2023-05-21T09:12:27;97593.97;;;24.69;38.52
55066;BME280;40964;42.114;24.220;2023-05-21T09:14:52;97597.06;;;24.36;37.54
55066;BME280;40964;42.114;24.220;2023-05-21T09:17:18;97594.66;;;24.34;40.25
55066;BME280;40964;42.114;24.220;2023-05-21T09:20:13;97587.66;;;24.65;42.32
55066;BME280;40964;42.114;24.220;2023-05-21T09:22:43;97597.13;;;23.91;37.67
55066;BME280;40964;42.114;24.220;2023-05-21T09:25:14;97600.03;;;23.72;38.01
55066;BME280;40964;42.114;24.220;2023-05-21T09:27:40;97595.09;;;23.52;39.67
55066;BME280;40964;42.114;24.220;2023-05-21T09:30:10;97597.19;;;23.55;41.73
55066;BME280;40964;42.114;24.220;2023-05-21T09:32:37;97587.50;;;23.68;42.36
55066;BME280;40964;42.114;24.220;2023-05-21T09:35:08;97596.19;;;23.96;39.53
55066;BME280;40964;42.114;24.220;2023-05-21T09:37:44;97591.41;;;24.15;43.39
55066;BME280;40964;42.114;24.220;2023-05-21T09:42:38;97586.06;;;24.24;41.10
55066;BME280;40964;42.114;24.220;2023-05-21T09:45:04;97574.88;;;24.30;40.25
55066;BME280;40964;42.114;24.220;2023-05-21T09:47:30;97589.28;;;24.03;38.42
55066;BME280;40964;42.114;24.220;2023-05-21T09:49:59;97587.19;;;23.92;41.99
55066;BME280;40964;42.114;24.220;2023-05-21T09:52:25;97590.97;;;23.91;42.01
55066;BME280;40964;42.114;24.220;2023-05-21T09:54:52;97578.28;;;23.83;40.46
55066;BME280;40964;42.114;24.220;2023-05-21T09:57:25;97579.50;;;23.76;42.30
55066;BME280;40964;42.114;24.220;2023-05-21T09:59:50;97576.50;;;23.78;45.04
55066;BME280;40964;42.114;24.220;2023-05-21T10:02:20;97587.91;;;23.39;40.02
55066;BME280;40964;42.114;24.220;2023-05-21T10:04:50;97581.06;;;23.33;40.44
55066;BME280;40964;42.114;24.220;2023-05-21T10:07:18;97577.91;;;23.31;41.24
55066;BME280;40964;42.114;24.220;2023-05-21T10:09:53;97584.81;;;23.68;43.65
55066;BME280;40964;42.114;24.220;2023-05-21T10:12:21;97584.41;;;23.74;41.18
55066;BME280;40964;42.114;24.220;2023-05-21T10:14:50;97583.56;;;23.65;38.91
55066;BME280;40964;42.114;24.220;2023-05-21T10:17:19;97582.66;;;23.56;39.56
55066;BME280;40964;42.114;24.220;2023-05-21T10:19:46;97581.75;;;23.83;39.72
55066;BME280;40964;42.114;24.220;2023-05-21T10:22:12;97578.50;;;23.95;41.21
55066;BME280;40964;42.114;24.220;2023-05-21T10:24:39;97562.50;;;24.21;39.00
55066;BME280;40964;42.114;24.220;2023-05-21T10:27:06;97559.97;;;24.24;38.21
55066;BME280;40964;42.114;24.220;2023-05-21T10:29:32;97557.88;;;24.52;37.16
55066;BME280;40964;42.114;24.220;2023-05-21T10:32:00;97560.28;;;24.71;38.56
55066;BME280;40964;42.114;24.220;2023-05-21T10:34:27;97566.03;;;24.96;35.53
55066;BME280;40964;42.114;24.220;2023-05-21T10:36:53;97572.41;;;25.26;40.09
55066;BME280;40964;42.114;24.220;2023-05-21T10:39:21;97572.56;;;25.46;39.21
55066;BME280;40964;42.114;24.220;2023-05-21T10:45:04;97571.09;;;25.58;36.89
55066;BME280;40964;42.114;24.220;2023-05-21T10:48:00;97572.25;;;25.31;34.70
55066;BME280;40964;42.114;24.220;2023-05-21T10:53:30;97569.69;;;25.43;34.77
55066;BME280;40964;42.114;24.220;2023-05-21T10:56:09;97572.56;;;25.46;37.20
55066;BME280;40964;42.114;24.220;2023-05-21T11:01:21;97592.34;;;25.25;36.28
55066;BME280;40964;42.114;24.220;2023-05-21T11:03:48;97584.75;;;25.27;34.41
55066;BME280;40964;42.114;24.220;2023-05-21T11:06:26;97582.03;;;25.01;35.65
55066;BME280;40964;42.114;24.220;2023-05-21T11:11:45;97590.38;;;24.82;35.02
55066;BME280;40964;42.114;24.220;2023-05-21T11:17:11;97590.00;;;23.87;35.61
55066;BME280;40964;42.114;24.220;2023-05-21T11:19:44;97580.03;;;23.87;36.83
55066;BME280;40964;42.114;24.220;2023-05-21T11:22:25;97574.41;;;23.66;37.85
55066;BME280;40964;42.114;24.220;2023-05-21T11:24:52;97563.66;;;23.66;37.04
55066;BME280;40964;42.114;24.220;2023-05-21T11:27:32;97571.03;;;23.83;38.79
55066;BME280;40964;42.114;24.220;2023-05-21T11:29:58;97571.28;;;23.73;39.19
55066;BME280;40964;42.114;24.220;2023-05-21T11:32:23;97569.56;;;23.77;39.74
55066;BME280;40964;42.114;24.220;2023-05-21T11:34:49;97572.19;;;23.68;41.89
55066;BME280;40964;42.114;24.220;2023-05-21T11:39:51;97570.13;;;23.65;39.07
55066;BME280;40964;42.114;24.220;2023-05-21T11:42:27;97566.81;;;23.68;40.52
55066;BME280;40964;42.114;24.220;2023-05-21T11:44:55;97565.13;;;23.36;39.55
55066;BME280;40964;42.114;24.220;2023-05-21T11:47:22;97561.44;;;23.46;41.81
55066;BME280;40964;42.114;24.220;2023-05-21T11:49:48;97566.69;;;23.29;41.79
55066;BME280;40964;42.114;24.220;2023-05-21T11:52:14;97554.22;;;23.10;40.79
55066;BME280;40964;42.114;24.220;2023-05-21T11:54:42;97571.41;;;23.09;41.71
55066;BME280;40964;42.114;24.220;2023-05-21T11:57:11;97564.03;;;23.15;40.31
55066;BME280;40964;42.114;24.220;2023-05-21T11:59:36;97561.75;;;23.08;42.87
55066;BME280;40964;42.114;24.220;2023-05-21T12:02:03;97564.72;;;23.20;42.78
55066;BME280;40964;42.114;24.220;2023-05-21T12:04:30;97565.22;;;23.22;43.29
55066;BME280;40964;42.114;24.220;2023-05-21T12:06:55;97555.44;;;23.27;44.72
55066;BME280;40964;42.114;24.220;2023-05-21T12:09:23;97548.94;;;23.19;40.15
55066;BME280;40964;42.114;24.220;2023-05-21T12:11:48;97548.72;;;23.15;43.20
55066;BME280;40964;42.114;24.220;2023-05-21T12:14:16;97545.94;;;23.20;42.73
55066;BME280;40964;42.114;24.220;2023-05-21T12:16:41;97546.34;;;23.36;45.91
55066;BME280;40964;42.114;24.220;2023-05-21T12:19:07;97543.56;;;23.41;44.39
55066;BME280;40964;42.114;24.220;2023-05-21T12:21:34;97541.03;;;23.45;43.87
55066;BME280;40964;42.114;24.220;2023-05-21T12:24:00;97535.94;;;23.35;42.71
55066;BME280;40964;42.114;24.220;2023-05-21T12:26:26;97538.69;;;23.21;43.78
55066;BME280;40964;42.114;24.220;2023-05-21T12:28:53;97536.50;;;23.45;44.77
55066;BME280;40964;42.114;24.220;2023-05-21T12:31:19;97536.66;;;23.49;45.35
55066;BME280;40964;42.114;24.220;2023-05-21T12:33:49;97523.91;;;23.55;46.46
55066;BME280;40964;42.114;24.220;2023-05-21T12:36:26;97541.19;;;23.40;45.23
55066;BME280;40964;42.114;24.220;2023-05-21T12:38:52;97523.81;;;23.37;46.43
55066;BME280;40964;42.114;24.220;2023-05-21T12:41:18;97526.91;;;23.31;45.58
55066;BME280;40964;42.114;24.220;2023-05-21T12:43:44;97518.38;;;23.06;44.04
55066;BME280;40964;42.114;24.220;2023-05-21T12:46:10;97520.59;;;22.90;44.61
55066;BME280;40964;42.114;24.220;2023-05-21T12:48:39;97522.72;;;22.66;44.84
55066;BME280;40964;42.114;24.220;2023-05-21T12:51:05;97515.97;;;22.69;46.45
55066;BME280;40964;42.114;24.220;2023-05-21T12:53:36;97514.47;;;22.62;48.21
55066;BME280;40964;42.114;24.220;2023-05-21T12:56:12;97510.94;;;22.53;45.99
55066;BME280;40964;42.114;24.220;2023-05-21T12:58:39;97508.06;;;22.36;45.75
55066;BME280;40964;42.114;24.220;2023-05-21T13:01:09;97503.31;;;22.19;47.15
55066;BME280;40964;42.114;24.220;2023-05-21T13:03:36;97514.53;;;22.07;46.94
55066;BME280;40964;42.114;24.220;2023-05-21T13:06:02;97513.00;;;22.01;46.55
55066;BME280;40964;42.114;24.220;2023-05-21T13:08:29;97517.88;;;21.99;47.30
55066;BME280;40964;42.114;24.220;2023-05-21T13:10:55;97518.78;;;21.95;48.97